sensor_id;sensor_type;location;lat;lon;timestamp;temperature;humidity
31525;DHT22;18134;52.298;8.888;2023-08-17T00:01:45;17.80;99.90
31525;DHT22;18134;52.298;8.888;2023-08-17T00:04:11;17.80;99.90
31525;DHT22;18134;52.298;8.888;2023-08-17T00:06:36;17.20;99.90
31525;DHT22;18134;52.298;8.888;2023-08-17T00:09:02;17.70;99.90
31525;DHT22;18134;52.298;8.888;2023-08-17T00:11:29;17.80;99.90
31525;DHT22;18134;52.298;8.888;2023-08-17T00:13:54;17.70;99.90
31525;DHT22;18134;52.298;8.888;2023-08-17T00:16:20;17.80;99.90
31525;DHT22;18134;52.298;8.888;2023-08-17T00:18:45;17.60;99.90
31525;DHT22;18134;52.298;8.888;2023-08-17T00:21:11;17.50;99.90
31525;DHT22;18134;52.298;8.888;2023-08-17T00:23:36;17.70;99.90
31525;DHT22;18134;52.298;8.888;2023-08-17T00:26:02;16.70;99.90
31525;DHT22;18134;52.298;8.888;2023-08-17T00:28:27;17.80;99.90
31525;DHT22;18134;52.298;8.888;2023-08-17T00:30:53;17.70;99.90
31525;DHT22;18134;52.298;8.888;2023-08-17T00:33:18;17.60;99.90
31525;DHT22;18134;52.298;8.888;2023-08-17T00:35:44;17.60;99.90
31525;DHT22;18134;52.298;8.888;2023-08-17T00:38:11;17.70;99.90
31525;DHT22;18134;52.298;8.888;2023-08-17T00:40:37;17.60;99.90
31525;DHT22;18134;52.298;8.888;2023-08-17T00:43:05;17.70;99.90
31525;DHT22;18134;52.298;8.888;2023-08-17T00:45:30;17.70;99.90
31525;DHT22;18134;52.298;8.888;2023-08-17T00:47:59;17.90;99.90
31525;DHT22;18134;52.298;8.888;2023-08-17T00:50:25;18.20;99.90
31525;DHT22;18134;52.298;8.888;2023-08-17T00:52:53;17.40;99.90
31525;DHT22;18134;52.298;8.888;2023-08-17T00:55:19;17.80;99.90
31525;DHT22;18134;52.298;8.888;2023-08-17T00:57:45;17.60;99.90
31525;DHT22;18134;52.298;8.888;2023-08-17T01:00:12;17.70;99.90
31525;DHT22;18134;52.298;8.888;2023-08-17T01:02:41;17.90;99.90
31525;DHT22;18134;52.298;8.888;2023-08-17T01:05:09;17.60;99.90
31525;DHT22;18134;52.298;8.888;2023-08-17T01:07:34;17.60;99.90
31525;DHT22;18134;52.298;8.888;2023-08-17T01:10:00;17.60;99.90
31525;DHT22;18134;52.298;8.888;2023-08-17T01:12:29;17.70;99.90
31525;DHT22;18134;52.298;8.888;2023-08-17T01:17:35;17.80;99.90
31525;DHT22;18134;52.298;8.888;2023-08-17T01:20:02;17.60;99.90
31525;DHT22;18134;52.298;8.888;2023-08-17T01:22:30;17.50;99.90
31525;DHT22;18134;52.298;8.888;2023-08-17T01:24:55;18.10;99.90
31525;DHT22;18134;52.298;8.888;2023-08-17T01:27:24;17.70;99.90
31525;DHT22;18134;52.298;8.888;2023-08-17T01:29:50;17.80;99.90
31525;DHT22;18134;52.298;8.888;2023-08-17T01:32:16;17.90;99.90
31525;DHT22;18134;52.298;8.888;2023-08-17T01:34:48;18.10;99.90
31525;DHT22;18134;52.298;8.888;2023-08-17T01:37:18;17.80;99.90
31525;DHT22;18134;52.298;8.888;2023-08-17T01:39:45;17.70;99.90
31525;DHT22;18134;52.298;8.888;2023-08-17T01:42:14;17.70;99.90
31525;DHT22;18134;52.298;8.888;2023-08-17T01:44:41;17.70;99.90
31525;DHT22;18134;52.298;8.888;2023-08-17T01:47:06;17.70;99.90
31525;DHT22;18134;52.298;8.888;2023-08-17T01:49:32;17.70;99.90
31525;DHT22;18134;52.298;8.888;2023-08-17T01:51:57;17.60;99.90
31525;DHT22;18134;52.298;8.888;2023-08-17T01:54:23;17.50;99.90
31525;DHT22;18134;52.298;8.888;2023-08-17T01:56:49;17.50;99.90
31525;DHT22;18134;52.298;8.888;2023-08-17T01:59:17;17.40;99.90
31525;DHT22;18134;52.298;8.888;2023-08-17T02:01:45;17.30;99.90
31525;DHT22;18134;52.298;8.888;2023-08-17T02:04:10;17.30;99.90
31525;DHT22;18134;52.298;8.888;2023-08-17T02:06:36;17.50;99.90
31525;DHT22;18134;52.298;8.888;2023-08-17T02:09:01;17.10;99.90
31525;DHT22;18134;52.298;8.888;2023-08-17T02:11:27;17.70;99.90
31525;DHT22;18134;52.298;8.888;2023-08-17T02:13:55;17.00;99.90
31525;DHT22;18134;52.298;8.888;2023-08-17T02:16:20;17.00;99.90
31525;DHT22;18134;52.298;8.888;2023-08-17T02:18:46;17.30;99.90
31525;DHT22;18134;52.298;8.888;2023-08-17T02:21:11;17.00;99.90
31525;DHT22;18134;52.298;8.888;2023-08-17T02:23:37;17.00;99.90
31525;DHT22;18134;52.298;8.888;2023-08-17T02:26:02;16.90;99.90
31525;DHT22;18134;52.298;8.888;2023-08-17T02:28:28;17.10;99.90
31525;DHT22;18134;52.298;8.888;2023-08-17T02:30:59;17.00;99.90
31525;DHT22;18134;52.298;8.888;2023-08-17T02:33:24;16.90;99.90
31525;DHT22;18134;52.298;8.888;2023-08-17T02:35:50;17.10;99.90
31525;DHT22;18134;52.298;8.888;2023-08-17T02:38:16;16.80;99.90
31525;DHT22;18134;52.298;8.888;2023-08-17T02:40:41;16.80;99.90
31525;DHT22;18134;52.298;8.888;2023-08-17T02:43:07;16.80;99.90
31525;DHT22;18134;52.298;8.888;2023-08-17T02:45:33;16.80;99.90
31525;DHT22;18134;52.298;8.888;2023-08-17T02:47:58;16.70;99.90
31525;DHT22;18134;52.298;8.888;2023-08-17T02:50:24;16.80;99.90
31525;DHT22;18134;52.298;8.888;2023-08-17T02:52:49;16.80;99.90
31525;DHT22;18134;52.298;8.888;2023-08-17T02:55:17;17.20;99.90
31525;DHT22;18134;52.298;8.888;2023-08-17T02:57:45;16.70;99.90
31525;DHT22;18134;52.298;8.888;2023-08-17T03:00:11;16.80;99.90
31525;DHT22;18134;52.298;8.888;2023-08-17T03:02:39;16.70;99.90
31525;DHT22;18134;52.298;8.888;2023-08-17T03:05:07;16.80;99.90
31525;DHT22;18134;52.298;8.888;2023-08-17T03:07:32;16.70;99.90
31525;DHT22;18134;52.298;8.888;2023-08-17T03:09:58;16.80;99.90
31525;DHT22;18134;52.298;8.888;2023-08-17T03:12:26;16.70;99.90
31525;DHT22;18134;52.298;8.888;2023-08-17T03:14:51;16.60;99.90
31525;DHT22;18134;52.298;8.888;2023-08-17T03:17:17;16.60;99.90
31525;DHT22;18134;52.298;8.888;2023-08-17T03:19:45;16.60;99.90
31525;DHT22;18134;52.298;8.888;2023-08-17T03:22:10;16.60;99.90
31525;DHT22;18134;52.298;8.888;2023-08-17T03:24:36;16.60;99.90
31525;DHT22;18134;52.298;8.888;2023-08-17T03:27:04;16.60;99.90
31525;DHT22;18134;52.298;8.888;2023-08-17T03:29:29;16.60;99.90
31525;DHT22;18134;52.298;8.888;2023-08-17T03:31:55;16.60;99.90
31525;DHT22;18134;52.298;8.888;2023-08-17T03:34:20;16.60;99.90
31525;DHT22;18134;52.298;8.888;2023-08-17T03:36:46;16.60;99.90
31525;DHT22;18134;52.298;8.888;2023-08-17T03:39:11;16.60;99.90
31525;DHT22;18134;52.298;8.888;2023-08-17T03:41:37;16.80;99.90
31525;DHT22;18134;52.298;8.888;2023-08-17T03:44:03;16.60;99.90
31525;DHT22;18134;52.298;8.888;2023-08-17T03:46:31;16.60;99.90
31525;DHT22;18134;52.298;8.888;2023-08-17T03:48:56;16.70;99.90
31525;DHT22;18134;52.298;8.888;2023-08-17T03:51:24;16.60;99.90
31525;DHT22;18134;52.298;8.888;2023-08-17T03:53:49;16.50;99.90
31525;DHT22;18134;52.298;8.888;2023-08-17T03:56:15;16.50;99.90
31525;DHT22;18134;52.298;8.888;2023-08-17T03:58:40;16.50;99.90
31525;DHT22;18134;52.298;8.888;2023-08-17T04:01:06;16.50;99.90
31525;DHT22;18134;52.298;8.888;2023-08-17T04:03:34;16.50;99.90
31525;DHT22;18134;52.298;8.888;2023-08-17T04:06:06;16.50;99.90
31525;DHT22;18134;52.298;8.888;2023-08-17T04:08:36;16.50;99.90
31525;DHT22;18134;52.298;8.888;2023-08-17T04:11:02;16.50;99.90
31525;DHT22;18134;52.298;8.888;2023-08-17T04:13:27;16.50;99.90
31525;DHT22;18134;52.298;8.888;2023-08-17T04:15:53;16.60;99.90
31525;DHT22;18134;52.298;8.888;2023-08-17T04:18:21;16.60;99.90
31525;DHT22;18134;52.298;8.888;2023-08-17T04:20:49;16.70;99.90
31525;DHT22;18134;52.298;8.888;2023-08-17T04:23:15;16.60;99.90
31525;DHT22;18134;52.298;8.888;2023-08-17T04:25:40;16.60;99.90
31525;DHT22;18134;52.298;8.888;2023-08-17T04:28:06;16.60;99.90
31525;DHT22;18134;52.298;8.888;2023-08-17T04:30:31;16.60;99.90
31525;DHT22;18134;52.298;8.888;2023-08-17T04:32:57;16.70;99.90
31525;DHT22;18134;52.298;8.888;2023-08-17T04:35:22;16.60;99.90
31525;DHT22;18134;52.298;8.888;2023-08-17T04:37:48;16.60;99.90
31525;DHT22;18134;52.298;8.888;2023-08-17T04:40:14;16.90;99.90
31525;DHT22;18134;52.298;8.888;2023-08-17T04:42:39;16.60;99.90
31525;DHT22;18134;52.298;8.888;2023-08-17T04:45:05;16.60;99.90
31525;DHT22;18134;52.298;8.888;2023-08-17T04:47:31;16.60;99.90
31525;DHT22;18134;52.298;8.888;2023-08-17T04:49:56;16.50;99.90
31525;DHT22;18134;52.298;8.888;2023-08-17T04:52:22;16.60;99.90
31525;DHT22;18134;52.298;8.888;2023-08-17T04:54:49;16.60;99.90
31525;DHT22;18134;52.298;8.888;2023-08-17T04:57:15;16.60;99.90
31525;DHT22;18134;52.298;8.888;2023-08-17T04:59:40;16.70;99.90
31525;DHT22;18134;52.298;8.888;2023-08-17T05:02:06;16.60;99.90
31525;DHT22;18134;52.298;8.888;2023-08-17T05:04:31;16.90;99.90
31525;DHT22;18134;52.298;8.888;2023-08-17T05:06:57;16.70;99.90
31525;DHT22;18134;52.298;8.888;2023-08-17T05:09:23;16.60;99.90
31525;DHT22;18134;52.298;8.888;2023-08-17T05:11:48;16.60;99.90
31525;DHT22;18134;52.298;8.888;2023-08-17T05:14:16;16.60;99.90
31525;DHT22;18134;52.298;8.888;2023-08-17T05:16:41;16.70;99.90
31525;DHT22;18134;52.298;8.888;2023-08-17T05:19:07;16.80;99.90
31525;DHT22;18134;52.298;8.888;2023-08-17T05:21:34;16.90;99.90
31525;DHT22;18134;52.298;8.888;2023-08-17T05:24:00;16.80;99.90
31525;DHT22;18134;52.298;8.888;2023-08-17T05:26:25;16.90;99.90
31525;DHT22;18134;52.298;8.888;2023-08-17T05:28:51;17.00;99.90
31525;DHT22;18134;52.298;8.888;2023-08-17T05:31:16;16.90;99.90
31525;DHT22;18134;52.298;8.888;2023-08-17T05:33:42;16.90;99.90
31525;DHT22;18134;52.298;8.888;2023-08-17T05:36:07;16.90;99.90
31525;DHT22;18134;52.298;8.888;2023-08-17T05:38:33;16.90;99.90
31525;DHT22;18134;52.298;8.888;2023-08-17T05:41:01;16.90;99.90
31525;DHT22;18134;52.298;8.888;2023-08-17T05:43:27;16.90;99.90
31525;DHT22;18134;52.298;8.888;2023-08-17T05:45:58;16.90;99.90
31525;DHT22;18134;52.298;8.888;2023-08-17T05:48:26;16.90;99.90
31525;DHT22;18134;52.298;8.888;2023-08-17T05:50:55;17.00;99.90
31525;DHT22;18134;52.298;8.888;2023-08-17T05:53:23;17.00;99.90
31525;DHT22;18134;52.298;8.888;2023-08-17T05:55:49;17.00;99.90
31525;DHT22;18134;52.298;8.888;2023-08-17T05:58:14;17.00;99.90
31525;DHT22;18134;52.298;8.888;2023-08-17T06:00:40;17.00;99.90
31525;DHT22;18134;52.298;8.888;2023-08-17T06:03:05;17.00;99.90
31525;DHT22;18134;52.298;8.888;2023-08-17T06:05:31;17.00;99.90
31525;DHT22;18134;52.298;8.888;2023-08-17T06:07:59;17.00;99.90
31525;DHT22;18134;52.298;8.888;2023-08-17T06:10:25;17.10;99.90
31525;DHT22;18134;52.298;8.888;2023-08-17T06:12:54;17.00;99.90
31525;DHT22;18134;52.298;8.888;2023-08-17T06:15:20;17.00;99.90
31525;DHT22;18134;52.298;8.888;2023-08-17T06:17:45;17.10;99.90
31525;DHT22;18134;52.298;8.888;2023-08-17T06:20:11;17.00;99.90
31525;DHT22;18134;52.298;8.888;2023-08-17T06:22:37;17.00;99.90
31525;DHT22;18134;52.298;8.888;2023-08-17T06:25:03;17.00;99.90
31525;DHT22;18134;52.298;8.888;2023-08-17T06:27:30;17.00;99.90
31525;DHT22;18134;52.298;8.888;2023-08-17T06:29:55;17.00;99.90
31525;DHT22;18134;52.298;8.888;2023-08-17T06:32:23;17.10;99.90
31525;DHT22;18134;52.298;8.888;2023-08-17T06:34:49;17.00;99.90
31525;DHT22;18134;52.298;8.888;2023-08-17T06:37:14;17.10;99.90
31525;DHT22;18134;52.298;8.888;2023-08-17T06:39:40;17.00;99.90
31525;DHT22;18134;52.298;8.888;2023-08-17T06:42:05;16.90;99.90
31525;DHT22;18134;52.298;8.888;2023-08-17T06:44:31;17.00;99.90
31525;DHT22;18134;52.298;8.888;2023-08-17T06:46:57;17.00;99.90
31525;DHT22;18134;52.298;8.888;2023-08-17T06:49:24;17.10;99.90
31525;DHT22;18134;52.298;8.888;2023-08-17T06:51:49;17.10;99.90
31525;DHT22;18134;52.298;8.888;2023-08-17T06:54:15;17.00;99.90
31525;DHT22;18134;52.298;8.888;2023-08-17T06:56:40;17.10;99.90
31525;DHT22;18134;52.298;8.888;2023-08-17T06:59:06;17.00;99.90
31525;DHT22;18134;52.298;8.888;2023-08-17T07:01:32;17.00;99.90
31525;DHT22;18134;52.298;8.888;2023-08-17T07:04:00;17.00;99.90
31525;DHT22;18134;52.298;8.888;2023-08-17T07:06:28;17.00;99.90
31525;DHT22;18134;52.298;8.888;2023-08-17T07:08:54;17.00;99.90
31525;DHT22;18134;52.298;8.888;2023-08-17T07:11:22;17.10;99.90
31525;DHT22;18134;52.298;8.888;2023-08-17T07:13:49;17.10;99.90
31525;DHT22;18134;52.298;8.888;2023-08-17T07:16:15;17.00;99.90
31525;DHT22;18134;52.298;8.888;2023-08-17T07:18:40;17.10;99.90
31525;DHT22;18134;52.298;8.888;2023-08-17T07:21:06;17.40;99.90
31525;DHT22;18134;52.298;8.888;2023-08-17T07:23:31;17.10;99.90
31525;DHT22;18134;52.298;8.888;2023-08-17T07:25:59;17.20;99.90
31525;DHT22;18134;52.298;8.888;2023-08-17T07:28:25;17.10;99.90
31525;DHT22;18134;52.298;8.888;2023-08-17T07:30:52;17.20;99.90
31525;DHT22;18134;52.298;8.888;2023-08-17T07:33:18;17.20;99.90
31525;DHT22;18134;52.298;8.888;2023-08-17T07:35:43;17.30;99.90
31525;DHT22;18134;52.298;8.888;2023-08-17T07:38:11;17.20;99.90
31525;DHT22;18134;52.298;8.888;2023-08-17T07:40:37;17.20;99.90
31525;DHT22;18134;52.298;8.888;2023-08-17T07:43:05;17.20;99.90
31525;DHT22;18134;52.298;8.888;2023-08-17T07:45:30;17.30;99.90
31525;DHT22;18134;52.298;8.888;2023-08-17T07:50:24;17.50;99.90
31525;DHT22;18134;52.298;8.888;2023-08-17T07:52:50;17.70;99.90
31525;DHT22;18134;52.298;8.888;2023-08-17T07:55:15;17.50;99.90
31525;DHT22;18134;52.298;8.888;2023-08-17T07:57:41;17.90;99.90
31525;DHT22;18134;52.298;8.888;2023-08-17T08:00:06;17.80;99.90
31525;DHT22;18134;52.298;8.888;2023-08-17T08:02:32;17.80;99.90
31525;DHT22;18134;52.298;8.888;2023-08-17T08:04:58;18.20;99.90
31525;DHT22;18134;52.298;8.888;2023-08-17T08:07:23;17.70;99.90
31525;DHT22;18134;52.298;8.888;2023-08-17T08:09:51;17.70;99.90
31525;DHT22;18134;52.298;8.888;2023-08-17T08:12:17;17.70;99.90
31525;DHT22;18134;52.298;8.888;2023-08-17T08:14:45;17.70;99.90
31525;DHT22;18134;52.298;8.888;2023-08-17T08:17:10;17.80;99.90
31525;DHT22;18134;52.298;8.888;2023-08-17T08:19:36;18.00;99.90
31525;DHT22;18134;52.298;8.888;2023-08-17T08:22:01;17.70;99.90
31525;DHT22;18134;52.298;8.888;2023-08-17T08:24:31;17.60;99.90
31525;DHT22;18134;52.298;8.888;2023-08-17T08:26:59;17.60;99.90
31525;DHT22;18134;52.298;8.888;2023-08-17T08:29:27;17.70;99.90
31525;DHT22;18134;52.298;8.888;2023-08-17T08:31:53;17.80;99.90
31525;DHT22;18134;52.298;8.888;2023-08-17T08:34:19;17.60;99.90
31525;DHT22;18134;52.298;8.888;2023-08-17T08:36:44;17.60;99.90
31525;DHT22;18134;52.298;8.888;2023-08-17T08:39:10;17.70;99.90
31525;DHT22;18134;52.298;8.888;2023-08-17T08:41:36;17.90;99.90
31525;DHT22;18134;52.298;8.888;2023-08-17T08:44:05;18.00;99.90
31525;DHT22;18134;52.298;8.888;2023-08-17T08:46:30;17.90;99.90
31525;DHT22;18134;52.298;8.888;2023-08-17T08:48:59;17.70;99.90
31525;DHT22;18134;52.298;8.888;2023-08-17T08:51:27;17.70;99.90
31525;DHT22;18134;52.298;8.888;2023-08-17T08:54:01;17.70;99.90
31525;DHT22;18134;52.298;8.888;2023-08-17T08:56:32;17.70;99.90
31525;DHT22;18134;52.298;8.888;2023-08-17T08:58:59;17.60;99.90
31525;DHT22;18134;52.298;8.888;2023-08-17T09:01:26;17.70;99.90
31525;DHT22;18134;52.298;8.888;2023-08-17T09:03:52;17.60;99.90
31525;DHT22;18134;52.298;8.888;2023-08-17T09:06:18;17.60;99.90
31525;DHT22;18134;52.298;8.888;2023-08-17T09:08:44;17.70;99.90
31525;DHT22;18134;52.298;8.888;2023-08-17T09:11:10;17.70;99.90
31525;DHT22;18134;52.298;8.888;2023-08-17T09:13:36;17.80;99.90
31525;DHT22;18134;52.298;8.888;2023-08-17T09:16:02;17.90;99.90
31525;DHT22;18134;52.298;8.888;2023-08-17T09:18:27;17.70;99.90
31525;DHT22;18134;52.298;8.888;2023-08-17T09:20:53;17.70;99.90
31525;DHT22;18134;52.298;8.888;2023-08-17T09:23:20;17.90;99.90
31525;DHT22;18134;52.298;8.888;2023-08-17T09:25:49;18.40;99.90
31525;DHT22;18134;52.298;8.888;2023-08-17T09:28:16;18.00;99.90
31525;DHT22;18134;52.298;8.888;2023-08-17T09:33:24;18.10;99.90
31525;DHT22;18134;52.298;8.888;2023-08-17T09:35:50;18.20;99.90
31525;DHT22;18134;52.298;8.888;2023-08-17T09:38:19;18.10;99.90
31525;DHT22;18134;52.298;8.888;2023-08-17T09:40:45;18.20;99.90
31525;DHT22;18134;52.298;8.888;2023-08-17T09:43:10;18.20;99.90
31525;DHT22;18134;52.298;8.888;2023-08-17T09:45:38;18.20;99.90
31525;DHT22;18134;52.298;8.888;2023-08-17T09:48:07;18.20;99.90
31525;DHT22;18134;52.298;8.888;2023-08-17T09:50:34;18.10;99.90
31525;DHT22;18134;52.298;8.888;2023-08-17T09:53:02;18.20;99.90
31525;DHT22;18134;52.298;8.888;2023-08-17T09:55:29;18.30;99.90
31525;DHT22;18134;52.298;8.888;2023-08-17T09:57:55;18.30;99.90
31525;DHT22;18134;52.298;8.888;2023-08-17T10:00:21;18.30;99.90
31525;DHT22;18134;52.298;8.888;2023-08-17T10:02:50;18.40;99.90
31525;DHT22;18134;52.298;8.888;2023-08-17T10:05:21;18.30;99.90
31525;DHT22;18134;52.298;8.888;2023-08-17T10:07:47;18.40;99.90
31525;DHT22;18134;52.298;8.888;2023-08-17T10:10:16;18.40;99.90
31525;DHT22;18134;52.298;8.888;2023-08-17T10:12:44;18.50;99.90
31525;DHT22;18134;52.298;8.888;2023-08-17T10:15:13;18.50;99.90
31525;DHT22;18134;52.298;8.888;2023-08-17T10:17:47;18.50;99.90
31525;DHT22;18134;52.298;8.888;2023-08-17T10:20:17;18.60;99.90
31525;DHT22;18134;52.298;8.888;2023-08-17T10:22:56;18.50;99.90
31525;DHT22;18134;52.298;8.888;2023-08-17T10:25:28;18.70;99.90
31525;DHT22;18134;52.298;8.888;2023-08-17T10:27:54;18.80;99.90
31525;DHT22;18134;52.298;8.888;2023-08-17T10:30:22;18.90;99.90
31525;DHT22;18134;52.298;8.888;2023-08-17T10:32:48;19.00;99.90
31525;DHT22;18134;52.298;8.888;2023-08-17T10:35:13;19.10;99.90
31525;DHT22;18134;52.298;8.888;2023-08-17T10:37:39;19.10;99.90
31525;DHT22;18134;52.298;8.888;2023-08-17T10:40:06;19.10;99.90
31525;DHT22;18134;52.298;8.888;2023-08-17T10:44:57;19.40;99.90
31525;DHT22;18134;52.298;8.888;2023-08-17T10:47:24;19.30;99.90
31525;DHT22;18134;52.298;8.888;2023-08-17T10:52:25;19.40;99.90
31525;DHT22;18134;52.298;8.888;2023-08-17T10:54:51;19.30;99.90
31525;DHT22;18134;52.298;8.888;2023-08-17T10:57:38;19.20;99.90
31525;DHT22;18134;52.298;8.888;2023-08-17T11:00:16;19.10;99.90
31525;DHT22;18134;52.298;8.888;2023-08-17T11:02:45;19.10;99.90
31525;DHT22;18134;52.298;8.888;2023-08-17T11:05:11;19.10;99.90
31525;DHT22;18134;52.298;8.888;2023-08-17T11:07:38;19.10;99.90
31525;DHT22;18134;52.298;8.888;2023-08-17T11:10:10;18.80;99.90
31525;DHT22;18134;52.298;8.888;2023-08-17T11:12:36;18.70;99.90
31525;DHT22;18134;52.298;8.888;2023-08-17T11:15:01;18.80;99.90
31525;DHT22;18134;52.298;8.888;2023-08-17T11:17:27;18.70;99.90
31525;DHT22;18134;52.298;8.888;2023-08-17T11:19:55;18.60;99.90
31525;DHT22;18134;52.298;8.888;2023-08-17T11:22:21;18.50;99.90
31525;DHT22;18134;52.298;8.888;2023-08-17T11:24:46;18.40;99.90
31525;DHT22;18134;52.298;8.888;2023-08-17T11:27:12;18.40;99.90
31525;DHT22;18134;52.298;8.888;2023-08-17T11:29:37;18.50;99.90
31525;DHT22;18134;52.298;8.888;2023-08-17T11:32:03;18.40;99.90
31525;DHT22;18134;52.298;8.888;2023-08-17T11:34:29;18.40;99.90
31525;DHT22;18134;52.298;8.888;2023-08-17T11:36:56;18.30;99.90
31525;DHT22;18134;52.298;8.888;2023-08-17T11:39:22;18.30;99.90
31525;DHT22;18134;52.298;8.888;2023-08-17T11:41:48;18.40;99.90
31525;DHT22;18134;52.298;8.888;2023-08-17T11:44:14;18.40;99.90
31525;DHT22;18134;52.298;8.888;2023-08-17T11:46:40;18.50;99.90
31525;DHT22;18134;52.298;8.888;2023-08-17T11:49:06;18.50;99.90
31525;DHT22;18134;52.298;8.888;2023-08-17T11:51:31;18.40;99.90
31525;DHT22;18134;52.298;8.888;2023-08-17T11:54:00;18.30;99.90
31525;DHT22;18134;52.298;8.888;2023-08-17T11:56:28;18.30;99.90
31525;DHT22;18134;52.298;8.888;2023-08-17T11:58:56;18.20;99.90
31525;DHT22;18134;52.298;8.888;2023-08-17T12:01:22;18.10;99.90
31525;DHT22;18134;52.298;8.888;2023-08-17T12:03:48;18.10;99.90
31525;DHT22;18134;52.298;8.888;2023-08-17T12:06:16;18.20;99.90
31525;DHT22;18134;52.298;8.888;2023-08-17T12:08:45;18.20;99.90
31525;DHT22;18134;52.298;8.888;2023-08-17T12:11:11;18.30;99.90
31525;DHT22;18134;52.298;8.888;2023-08-17T12:13:36;18.20;99.90
31525;DHT22;18134;52.298;8.888;2023-08-17T12:16:05;18.20;99.90
31525;DHT22;18134;52.298;8.888;2023-08-17T12:18:33;18.20;99.90
31525;DHT22;18134;52.298;8.888;2023-08-17T12:20:59;18.20;99.90
31525;DHT22;18134;52.298;8.888;2023-08-17T12:23:28;18.10;99.90
31525;DHT22;18134;52.298;8.888;2023-08-17T12:25:53;18.00;99.90
31525;DHT22;18134;52.298;8.888;2023-08-17T12:28:19;17.90;99.90
31525;DHT22;18134;52.298;8.888;2023-08-17T12:30:45;17.90;99.90
31525;DHT22;18134;52.298;8.888;2023-08-17T12:33:10;17.80;99.90
31525;DHT22;18134;52.298;8.888;2023-08-17T12:35:36;17.80;99.90
31525;DHT22;18134;52.298;8.888;2023-08-17T12:38:01;17.80;99.90
31525;DHT22;18134;52.298;8.888;2023-08-17T12:40:27;17.70;99.90
31525;DHT22;18134;52.298;8.888;2023-08-17T12:42:53;17.80;99.90
31525;DHT22;18134;52.298;8.888;2023-08-17T12:45:18;17.80;99.90
31525;DHT22;18134;52.298;8.888;2023-08-17T12:47:44;17.80;99.90
31525;DHT22;18134;52.298;8.888;2023-08-17T12:50:09;17.90;99.90
31525;DHT22;18134;52.298;8.888;2023-08-17T12:52:35;18.00;99.90
31525;DHT22;18134;52.298;8.888;2023-08-17T12:55:01;18.00;99.90
31525;DHT22;18134;52.298;8.888;2023-08-17T12:57:26;18.00;99.90
31525;DHT22;18134;52.298;8.888;2023-08-17T12:59:52;18.10;99.90
31525;DHT22;18134;52.298;8.888;2023-08-17T13:02:19;18.00;99.90
31525;DHT22;18134;52.298;8.888;2023-08-17T13:04:45;17.80;99.90
31525;DHT22;18134;52.298;8.888;2023-08-17T13:07:10;17.80;99.90
31525;DHT22;18134;52.298;8.888;2023-08-17T13:09:38;17.70;99.90
31525;DHT22;18134;52.298;8.888;2023-08-17T13:12:04;17.60;99.90
31525;DHT22;18134;52.298;8.888;2023-08-17T13:14:29;17.60;99.90
31525;DHT22;18134;52.298;8.888;2023-08-17T13:16:55;17.50;99.90
31525;DHT22;18134;52.298;8.888;2023-08-17T13:19:20;17.40;99.90
31525;DHT22;18134;52.298;8.888;2023-08-17T13:21:48;17.40;99.90
31525;DHT22;18134;52.298;8.888;2023-08-17T13:24:14;17.70;99.90
31525;DHT22;18134;52.298;8.888;2023-08-17T13:26:42;17.30;99.90
31525;DHT22;18134;52.298;8.888;2023-08-17T13:29:07;17.40;99.90
31525;DHT22;18134;52.298;8.888;2023-08-17T13:31:34;17.40;99.90
31525;DHT22;18134;52.298;8.888;2023-08-17T13:34:00;17.60;99.90
31525;DHT22;18134;52.298;8.888;2023-08-17T13:36:25;17.60;99.90
31525;DHT22;18134;52.298;8.888;2023-08-17T13:38:51;17.70;99.90
31525;DHT22;18134;52.298;8.888;2023-08-17T13:41:16;17.30;99.90
31525;DHT22;18134;52.298;8.888;2023-08-17T13:43:42;17.80;99.90
31525;DHT22;18134;52.298;8.888;2023-08-17T13:46:08;17.90;99.90
31525;DHT22;18134;52.298;8.888;2023-08-17T13:48:35;17.80;99.90
31525;DHT22;18134;52.298;8.888;2023-08-17T13:51:00;17.80;99.90
31525;DHT22;18134;52.298;8.888;2023-08-17T13:53:26;17.80;99.90
31525;DHT22;18134;52.298;8.888;2023-08-17T13:55:51;17.90;99.90
31525;DHT22;18134;52.298;8.888;2023-08-17T13:58:21;17.80;99.90
31525;DHT22;18134;52.298;8.888;2023-08-17T14:00:47;17.80;99.90
31525;DHT22;18134;52.298;8.888;2023-08-17T14:03:15;17.80;99.90
31525;DHT22;18134;52.298;8.888;2023-08-17T14:05:43;17.80;99.90
31525;DHT22;18134;52.298;8.888;2023-08-17T14:08:10;17.80;99.90
31525;DHT22;18134;52.298;8.888;2023-08-17T14:10:36;17.80;99.90
31525;DHT22;18134;52.298;8.888;2023-08-17T14:13:01;17.80;99.90
31525;DHT22;18134;52.298;8.888;2023-08-17T14:15:29;17.80;99.90
31525;DHT22;18134;52.298;8.888;2023-08-17T14:17:55;17.80;99.90
31525;DHT22;18134;52.298;8.888;2023-08-17T14:20:21;17.80;99.90
31525;DHT22;18134;52.298;8.888;2023-08-17T14:22:48;17.80;99.90
31525;DHT22;18134;52.298;8.888;2023-08-17T14:25:14;17.80;99.90
31525;DHT22;18134;52.298;8.888;2023-08-17T14:27:41;17.70;99.90
31525;DHT22;18134;52.298;8.888;2023-08-17T14:30:06;17.80;99.90
31525;DHT22;18134;52.298;8.888;2023-08-17T14:32:32;17.80;99.90
31525;DHT22;18134;52.298;8.888;2023-08-17T14:34:58;17.90;99.90
31525;DHT22;18134;52.298;8.888;2023-08-17T14:37:23;18.00;99.90
31525;DHT22;18134;52.298;8.888;2023-08-17T14:39:51;17.90;99.90
31525;DHT22;18134;52.298;8.888;2023-08-17T14:42:19;18.00;99.90
31525;DHT22;18134;52.298;8.888;2023-08-17T14:44:44;18.10;99.90
31525;DHT22;18134;52.298;8.888;2023-08-17T14:47:12;18.10;99.90
31525;DHT22;18134;52.298;8.888;2023-08-17T14:49:38;18.20;99.90
31525;DHT22;18134;52.298;8.888;2023-08-17T14:52:04;18.20;99.90
31525;DHT22;18134;52.298;8.888;2023-08-17T14:54:32;18.20;99.90
31525;DHT22;18134;52.298;8.888;2023-08-17T14:56:57;18.10;99.90
31525;DHT22;18134;52.298;8.888;2023-08-17T14:59:23;18.00;99.90
31525;DHT22;18134;52.298;8.888;2023-08-17T15:01:48;18.10;99.90
31525;DHT22;18134;52.298;8.888;2023-08-17T15:04:16;18.10;99.90
31525;DHT22;18134;52.298;8.888;2023-08-17T15:06:41;18.30;99.90
31525;DHT22;18134;52.298;8.888;2023-08-17T15:09:07;18.30;99.90
31525;DHT22;18134;52.298;8.888;2023-08-17T15:11:32;18.40;99.90
31525;DHT22;18134;52.298;8.888;2023-08-17T15:13:58;18.40;99.90
31525;DHT22;18134;52.298;8.888;2023-08-17T15:16:23;18.60;99.90
31525;DHT22;18134;52.298;8.888;2023-08-17T15:18:53;18.50;99.90
31525;DHT22;18134;52.298;8.888;2023-08-17T15:21:21;18.40;99.90
31525;DHT22;18134;52.298;8.888;2023-08-17T15:23:46;18.30;99.90
31525;DHT22;18134;52.298;8.888;2023-08-17T15:26:14;18.30;99.90
31525;DHT22;18134;52.298;8.888;2023-08-17T15:28:42;18.30;99.90
31525;DHT22;18134;52.298;8.888;2023-08-17T15:31:10;18.30;99.90
31525;DHT22;18134;52.298;8.888;2023-08-17T15:33:39;18.30;99.90
31525;DHT22;18134;52.298;8.888;2023-08-17T15:36:08;18.30;99.90
31525;DHT22;18134;52.298;8.888;2023-08-17T15:38:34;18.20;99.90